Terminal Aerodrome Forecast
Issued by NWS Twin Cities, MN

Home | Current Version | Previous Version | Text Only | Print | Product List | Glossary Off
Versions: 1 2 3 4 5 6 7 8 9 10 11 12 13 14 15 16 17 18 19

000
FTUS43 KMPX 281700
TAFEAU
TAF
KEAU 281720Z 2818/2918 34006KT P6SM SCT040 BKN070
     FM290200 32003KT P6SM SCT060
     FM291000 VRB02KT P6SM FEW060
     FM291400 31010KT P6SM SCT040=

USA.gov is the U.S. government's official web portal to all federal, state and local government web resources and services.